Time;durP1;ratioP1;P1;durP2;ratioP2;P2;SDS_P1;SDS_P2;PMS_P1;PMS_P2;Temp;Humidity;BMP_temperature;BMP_pressure;BME280_temperature;BME280_humidity;BME280_pressure;Samples;Min_cycle;Max_cycle;Signal;HPM_P1;HPM_P2
2022/06/30 00:01:01;;;;;;;0.80;0.80;;;27.70;55.90;;;;;;5044873;28;20516;-62
2022/06/30 00:03:28;;;;;;;1.15;1.15;;;27.60;55.90;;;;;;5044857;28;20084;-64
2022/06/30 00:05:56;;;;;;;0.88;0.88;;;27.60;55.90;;;;;;5045192;28;20072;-62
2022/06/30 00:08:23;;;;;;;1.08;1.08;;;27.60;55.90;;;;;;5045037;28;20247;-61
2022/06/30 00:10:50;;;;;;;0.90;0.90;;;27.60;55.90;;;;;;5044728;28;20575;-61
2022/06/30 00:13:17;;;;;;;0.82;0.82;;;27.60;55.90;;;;;;5043918;28;20094;-61
2022/06/30 00:15:44;;;;;;;1.65;1.25;;;27.60;55.90;;;;;;5045163;28;20049;-62
2022/06/30 00:18:12;;;;;;;0.80;0.80;;;27.60;55.90;;;;;;5043392;28;20052;-62
2022/06/30 00:20:39;;;;;;;0.68;0.68;;;27.60;55.90;;;;;;5010978;28;20053;-61
2022/06/30 00:23:06;;;;;;;0.90;0.90;;;27.60;56.00;;;;;;5027020;28;20156;-61
2022/06/30 00:25:33;;;;;;;0.85;0.85;;;27.60;56.00;;;;;;5045024;28;20049;-62
2022/06/30 00:28:00;;;;;;;1.00;1.00;;;27.60;56.00;;;;;;5044656;28;20076;-61
2022/06/30 00:30:27;;;;;;;0.90;0.90;;;27.60;56.00;;;;;;5043888;28;20486;-61
2022/06/30 00:32:55;;;;;;;0.95;0.95;;;27.60;56.00;;;;;;5043620;28;20099;-61
2022/06/30 00:35:22;;;;;;;1.00;1.00;;;27.50;56.00;;;;;;5045745;28;20053;-61
2022/06/30 00:37:49;;;;;;;1.10;1.10;;;27.50;56.00;;;;;;5048680;28;20060;-62
2022/06/30 00:40:16;;;;;;;1.00;0.98;;;27.50;56.00;;;;;;5047028;28;20492;-62
2022/06/30 00:42:43;;;;;;;0.90;0.90;;;27.50;56.00;;;;;;5047892;28;20049;-61
2022/06/30 00:45:11;;;;;;;1.75;1.02;;;27.50;56.10;;;;;;5048075;28;20053;-61
2022/06/30 00:47:38;;;;;;;0.90;0.90;;;27.50;56.10;;;;;;5048234;28;20291;-62
2022/06/30 00:50:07;;;;;;;0.80;0.80;;;27.50;56.10;;;;;;5046897;28;20494;-62
2022/06/30 00:52:37;;;;;;;0.93;0.93;;;27.50;56.10;;;;;;5047056;28;20284;-61
2022/06/30 00:55:06;;;;;;;1.10;1.10;;;27.50;56.10;;;;;;5048083;28;20103;-61
2022/06/30 00:57:34;;;;;;;0.75;0.75;;;27.50;56.10;;;;;;5047005;28;20462;-62
2022/06/30 01:00:04;;;;;;;0.90;0.90;;;27.50;56.20;;;;;;5048091;28;20709;-62
2022/06/30 01:02:33;;;;;;;1.02;1.02;;;27.40;56.10;;;;;;5047785;28;20056;-63
2022/06/30 01:05:01;;;;;;;0.88;0.88;;;27.50;56.20;;;;;;5048271;28;20496;-61
2022/06/30 01:07:30;;;;;;;0.88;0.88;;;27.40;56.10;;;;;;5047985;28;20452;-61
2022/06/30 01:12:45;;;;;;;0.77;0.77;;;27.40;56.10;;;;;;5048203;28;20059;-62
2022/06/30 01:15:16;;;;;;;0.80;0.80;;;27.40;56.20;;;;;;5048170;28;20063;-61
2022/06/30 01:17:44;;;;;;;0.98;0.98;;;27.40;56.20;;;;;;5047731;28;20045;-61
2022/06/30 01:20:13;;;;;;;1.10;1.10;;;27.40;56.20;;;;;;5046139;28;20064;-61
2022/06/30 01:22:41;;;;;;;1.20;1.10;;;27.40;56.20;;;;;;5048135;28;20096;-61
2022/06/30 01:25:10;;;;;;;0.70;0.70;;;27.40;56.20;;;;;;5047603;28;20049;-62
2022/06/30 01:27:37;;;;;;;0.95;0.95;;;27.40;56.20;;;;;;5047705;28;20044;-61
2022/06/30 01:30:05;;;;;;;0.93;0.93;;;27.40;56.20;;;;;;5047148;28;20044;-61
2022/06/30 01:32:32;;;;;;;0.95;0.95;;;27.40;56.20;;;;;;5047585;28;20103;-61
2022/06/30 01:35:00;;;;;;;1.48;1.02;;;27.40;56.20;;;;;;5047212;28;20254;-62
2022/06/30 01:37:46;;;;;;;0.70;0.70;;;27.40;56.20;;;;;;5029884;28;20045;-61
2022/06/30 01:40:13;;;;;;;0.98;0.98;;;27.40;56.20;;;;;;5047210;28;20057;-61
2022/06/30 01:42:40;;;;;;;0.70;0.70;;;27.40;56.80;;;;;;5046207;28;20099;-61
2022/06/30 01:45:08;;;;;;;0.68;0.68;;;27.40;56.20;;;;;;5045314;28;20509;-61
2022/06/30 01:47:36;;;;;;;1.00;1.00;;;27.40;56.20;;;;;;5046196;28;20572;-61
2022/06/30 01:50:06;;;;;;;1.00;1.00;;;27.40;56.20;;;;;;5046844;28;20049;-62
2022/06/30 01:52:34;;;;;;;0.70;0.70;;;27.40;56.30;;;;;;5046005;28;20102;-61
2022/06/30 01:55:01;;;;;;;0.90;0.90;;;27.40;56.30;;;;;;5047153;28;20053;-62
2022/06/30 01:57:28;;;;;;;1.00;1.00;;;27.40;56.30;;;;;;5046742;28;20052;-62
2022/06/30 01:59:55;;;;;;;0.80;0.80;;;27.40;56.30;;;;;;5046921;28;20049;-61
2022/06/30 02:02:22;;;;;;;0.90;0.90;;;27.40;56.30;;;;;;5046198;28;20077;-61
2022/06/30 02:04:53;;;;;;;0.88;0.88;;;27.40;56.30;;;;;;5046749;28;20075;-62
2022/06/30 02:07:23;;;;;;;0.95;0.95;;;27.40;56.30;;;;;;5046832;28;20044;-62
2022/06/30 02:09:51;;;;;;;0.70;0.70;;;27.40;56.30;;;;;;5045578;28;20056;-62
2022/06/30 02:15:08;;;;;;;0.90;0.90;;;27.30;56.30;;;;;;5046107;28;20122;-62
2022/06/30 02:17:36;;;;;;;0.60;0.60;;;27.30;56.30;;;;;;5046824;28;20046;-62
2022/06/30 02:20:07;;;;;;;0.93;0.93;;;27.30;56.30;;;;;;5045274;28;20049;-62
2022/06/30 02:22:38;;;;;;;0.80;0.80;;;27.30;56.30;;;;;;5045291;28;20444;-62
2022/06/30 02:25:07;;;;;;;0.65;0.65;;;27.30;56.30;;;;;;5045781;28;20231;-61
2022/06/30 02:27:34;;;;;;;0.70;0.70;;;27.30;56.30;;;;;;5046426;28;20511;-61
2022/06/30 02:30:02;;;;;;;0.60;0.60;;;27.30;56.30;;;;;;5044715;28;20450;-62
2022/06/30 02:32:29;;;;;;;0.90;0.90;;;27.30;56.30;;;;;;5046576;28;20079;-61
2022/06/30 02:34:56;;;;;;;0.90;0.90;;;27.30;56.30;;;;;;5045855;28;20092;-62
2022/06/30 02:37:23;;;;;;;1.13;1.13;;;27.30;56.30;;;;;;5046188;28;20056;-62
2022/06/30 02:39:51;;;;;;;1.05;1.05;;;27.30;56.30;;;;;;5046121;28;20308;-62
2022/06/30 02:42:18;;;;;;;0.68;0.68;;;27.30;56.40;;;;;;5045579;28;20045;-62
2022/06/30 02:44:45;;;;;;;0.82;0.82;;;27.30;56.40;;;;;;5046046;28;20045;-61
2022/06/30 02:47:12;;;;;;;1.10;1.10;;;27.40;56.40;;;;;;5046020;28;20045;-62
2022/06/30 02:49:40;;;;;;;0.70;0.70;;;27.30;56.30;;;;;;5044541;28;20865;-62
2022/06/30 02:52:07;;;;;;;0.73;0.73;;;27.30;56.30;;;;;;5045249;28;20111;-61
2022/06/30 02:54:35;;;;;;;0.90;0.90;;;27.30;56.30;;;;;;5045833;28;20053;-61
2022/06/30 02:57:02;;;;;;;0.85;0.85;;;27.30;56.30;;;;;;5044754;28;20442;-61
2022/06/30 02:59:29;;;;;;;0.98;0.98;;;27.30;56.30;;;;;;5044842;28;20098;-62
2022/06/30 03:01:56;;;;;;;0.75;0.75;;;27.30;56.30;;;;;;5045931;28;20702;-61
2022/06/30 03:04:23;;;;;;;0.90;0.90;;;27.30;56.30;;;;;;5044365;28;20049;-61
2022/06/30 03:06:51;;;;;;;0.90;0.90;;;27.30;56.30;;;;;;5044909;28;20337;-61
2022/06/30 03:09:19;;;;;;;0.73;0.73;;;27.30;56.30;;;;;;5045467;28;20091;-61
2022/06/30 03:11:46;;;;;;;0.70;0.70;;;27.30;56.30;;;;;;5044195;28;20041;-61
2022/06/30 03:14:18;;;;;;;1.02;1.02;;;27.30;56.20;;;;;;5044246;28;20513;-61
2022/06/30 03:16:46;;;;;;;0.80;0.80;;;27.30;56.20;;;;;;5045454;28;20477;-61
2022/06/30 03:19:13;;;;;;;0.70;0.70;;;27.30;56.30;;;;;;5045555;28;20049;-61
2022/06/30 03:21:41;;;;;;;0.90;0.90;;;27.30;56.20;;;;;;5045170;28;20053;-62
2022/06/30 03:24:08;;;;;;;0.93;0.90;;;27.30;56.20;;;;;;5045328;28;20495;-61
2022/06/30 03:26:36;;;;;;;0.70;0.70;;;27.30;56.20;;;;;;5045426;28;20406;-61
2022/06/30 03:29:04;;;;;;;0.88;0.88;;;27.30;56.20;;;;;;5045338;28;20067;-62
2022/06/30 03:31:32;;;;;;;0.82;0.82;;;27.30;56.10;;;;;;5045515;28;20095;-61
2022/06/30 03:33:59;;;;;;;0.60;0.60;;;27.40;56.20;;;;;;5042763;28;20045;-61
2022/06/30 03:36:26;;;;;;;1.30;1.23;;;27.40;56.20;;;;;;5038324;28;20094;-62
2022/06/30 03:38:54;;;;;;;0.80;0.80;;;27.40;56.10;;;;;;5044899;28;20099;-62
2022/06/30 03:41:21;;;;;;;1.40;1.10;;;27.40;56.10;;;;;;5045252;28;20452;-61
2022/06/30 03:43:48;;;;;;;0.80;0.80;;;27.40;56.10;;;;;;5043466;28;20077;-62
2022/06/30 03:46:15;;;;;;;0.80;0.80;;;27.40;56.00;;;;;;5043535;28;20040;-62
2022/06/30 03:48:43;;;;;;;0.90;0.90;;;27.40;56.00;;;;;;5044692;28;20177;-61
2022/06/30 03:51:11;;;;;;;1.23;0.98;;;27.40;55.90;;;;;;5043653;28;20460;-61
2022/06/30 03:53:39;;;;;;;0.90;0.90;;;27.50;55.90;;;;;;5041295;28;20044;-61
2022/06/30 03:56:06;;;;;;;1.13;1.13;;;27.50;55.90;;;;;;5045292;28;20596;-63
2022/06/30 03:58:34;;;;;;;1.00;0.90;;;27.50;55.80;;;;;;5027219;28;20094;-61
2022/06/30 04:01:01;;;;;;;1.05;0.95;;;27.50;55.80;;;;;;5045140;28;20099;-62
2022/06/30 04:03:29;;;;;;;1.17;1.10;;;27.50;55.70;;;;;;5043633;28;20360;-61
2022/06/30 04:05:56;;;;;;;0.80;0.80;;;27.60;55.70;;;;;;5044927;28;20397;-61
2022/06/30 04:08:23;;;;;;;1.17;1.17;;;27.60;56.10;;;;;;5045061;28;20080;-61
2022/06/30 04:10:51;;;;;;;1.13;1.13;;;27.60;55.50;;;;;;5046096;28;20061;-61
2022/06/30 04:13:18;;;;;;;0.90;0.90;;;27.70;55.50;;;;;;5049177;28;20055;-61
2022/06/30 04:15:46;;;;;;;1.00;1.00;;;27.70;55.40;;;;;;5047470;28;20106;-61
2022/06/30 04:18:13;;;;;;;1.20;1.10;;;27.70;55.40;;;;;;5048679;28;20482;-62
2022/06/30 04:20:40;;;;;;;1.25;1.25;;;27.70;55.30;;;;;;5049022;28;20045;-61
2022/06/30 04:23:07;;;;;;;1.00;1.00;;;27.80;55.30;;;;;;5046252;28;20052;-61
2022/06/30 04:25:35;;;;;;;1.02;1.02;;;27.80;55.20;;;;;;5049227;28;20429;-61
2022/06/30 04:28:02;;;;;;;0.90;0.90;;;27.80;55.20;;;;;;5048836;28;20464;-61
2022/06/30 04:33:17;;;;;;;1.27;1.17;;;27.80;55.20;;;;;;5048548;28;20308;-61
2022/06/30 04:35:44;;;;;;;1.10;1.10;;;27.80;55.10;;;;;;5047189;28;20052;-61
2022/06/30 04:38:11;;;;;;;1.20;1.20;;;27.80;55.00;;;;;;5046663;28;20407;-61
2022/06/30 04:43:25;;;;;;;1.13;1.13;;;27.80;55.00;;;;;;5047927;28;20080;-62
2022/06/30 04:45:52;;;;;;;1.17;1.17;;;27.90;55.00;;;;;;5048392;28;20533;-61
2022/06/30 04:48:20;;;;;;;1.20;1.20;;;27.90;55.00;;;;;;5046939;28;20049;-62
2022/06/30 04:50:47;;;;;;;0.82;0.82;;;27.90;55.00;;;;;;5044073;28;20057;-61
2022/06/30 04:53:14;;;;;;;1.38;1.27;;;27.90;54.90;;;;;;5040211;28;20653;-61
2022/06/30 04:55:41;;;;;;;1.27;1.27;;;27.90;54.90;;;;;;5045475;28;20098;-62
2022/06/30 04:58:09;;;;;;;1.00;1.00;;;27.90;55.00;;;;;;5045752;28;20276;-61
2022/06/30 05:00:36;;;;;;;1.58;1.45;;;27.90;55.40;;;;;;5049613;28;20484;-61
2022/06/30 05:03:03;;;;;;;1.40;1.25;;;27.90;54.80;;;;;;5047730;28;20049;-61
2022/06/30 05:05:30;;;;;;;1.20;1.20;;;28.00;54.80;;;;;;5046099;28;20107;-61
2022/06/30 05:07:57;;;;;;;1.27;1.27;;;27.90;54.70;;;;;;5043385;28;20049;-61
2022/06/30 05:10:25;;;;;;;1.70;1.60;;;27.90;54.80;;;;;;5031322;28;20041;-61
2022/06/30 05:12:52;;;;;;;1.35;1.35;;;27.80;54.80;;;;;;5049535;28;20045;-61
2022/06/30 05:15:19;;;;;;;1.50;1.40;;;27.70;54.80;;;;;;5044282;28;20060;-62
2022/06/30 05:17:46;;;;;;;5.85;3.92;;;27.50;55.10;;;;;;5067256;28;20075;-63
2022/06/30 05:20:13;;;;;;;6.85;3.45;;;27.30;55.20;;;;;;5050536;28;20080;-60
2022/06/30 05:22:41;;;;;;;4.78;4.32;;;27.00;55.00;;;;;;5044610;28;20122;-61
2022/06/30 05:27:56;;;;;;;7.22;4.18;;;26.50;55.70;;;;;;5051142;28;20045;-64
2022/06/30 05:30:23;;;;;;;5.32;4.22;;;26.30;55.60;;;;;;5043009;28;20136;-64
2022/06/30 05:32:50;;;;;;;9.20;4.55;;;26.00;55.70;;;;;;5042878;28;20052;-63
2022/06/30 05:35:18;;;;;;;4.68;3.92;;;25.80;56.00;;;;;;5044685;28;20052;-63
2022/06/30 05:37:51;;;;;;;6.57;4.50;;;25.60;56.00;;;;;;5043994;28;20051;-65
2022/06/30 05:40:18;;;;;;;8.00;3.67;;;25.30;56.40;;;;;;5044824;28;20575;-64
2022/06/30 05:42:45;;;;;;;6.75;4.00;;;25.10;56.60;;;;;;5041174;28;20041;-63
2022/06/30 05:45:13;;;;;;;10.68;4.28;;;24.90;56.90;;;;;;5049983;28;20048;-63
2022/06/30 05:47:51;;;;;;;6.30;3.92;;;24.90;57.30;;;;;;5040792;28;20045;-66
2022/06/30 05:50:20;;;;;;;6.10;4.20;;;24.70;56.60;;;;;;5043695;28;20577;-66
2022/06/30 05:52:50;;;;;;;5.30;4.28;;;24.60;56.60;;;;;;5074589;28;20056;-66
2022/06/30 05:55:18;;;;;;;7.07;4.40;;;24.50;56.40;;;;;;5038769;28;20049;-66
2022/06/30 05:58:01;;;;;;;10.07;3.30;;;24.30;56.30;;;;;;5042633;28;20048;-66
2022/06/30 06:00:30;;;;;;;4.30;3.88;;;24.20;56.40;;;;;;5036080;28;20133;-66
2022/06/30 06:02:58;;;;;;;5.57;3.85;;;24.10;56.40;;;;;;5043840;28;20048;-66
2022/06/30 06:05:26;;;;;;;4.57;4.15;;;24.00;56.70;;;;;;5042489;28;20049;-66
2022/06/30 06:07:53;;;;;;;6.22;3.60;;;23.90;56.80;;;;;;5042502;28;20041;-66
2022/06/30 06:10:21;;;;;;;4.40;4.00;;;23.80;56.80;;;;;;5041841;28;20099;-66
2022/06/30 06:12:49;;;;;;;4.53;3.92;;;23.70;56.70;;;;;;5042239;28;20095;-66
2022/06/30 06:15:16;;;;;;;5.65;4.03;;;23.60;56.90;;;;;;5041951;28;20057;-62
2022/06/30 06:17:47;;;;;;;5.85;3.80;;;23.50;57.50;;;;;;5044463;28;20053;-64
2022/06/30 06:20:17;;;;;;;4.15;3.85;;;23.40;57.60;;;;;;5045769;28;20406;-64
2022/06/30 06:22:44;;;;;;;4.70;3.85;;;23.40;57.90;;;;;;5044327;28;20057;-63
2022/06/30 06:25:13;;;;;;;5.97;3.85;;;23.30;58.30;;;;;;5053269;28;20048;-63
2022/06/30 06:27:41;;;;;;;5.63;3.85;;;23.30;58.00;;;;;;5042328;28;20135;-64
2022/06/30 06:30:11;;;;;;;4.10;3.70;;;23.30;58.50;;;;;;5041163;28;20072;-63
2022/06/30 06:32:38;;;;;;;5.78;3.88;;;23.30;58.50;;;;;;5037867;28;20076;-62
2022/06/30 06:35:06;;;;;;;4.50;3.55;;;23.30;58.50;;;;;;5032114;28;20147;-63
2022/06/30 06:37:38;;;;;;;3.65;3.35;;;23.30;58.30;;;;;;5045745;28;20041;-63
2022/06/30 06:40:06;;;;;;;6.90;4.75;;;23.30;58.50;;;;;;5042422;28;20049;-64
2022/06/30 06:42:33;;;;;;;4.30;3.78;;;23.30;58.80;;;;;;5071150;28;20048;-66
2022/06/30 06:45:08;;;;;;;4.63;3.88;;;23.30;58.90;;;;;;5043779;28;20119;-64
2022/06/30 06:47:35;;;;;;;6.72;3.83;;;23.30;58.90;;;;;;5042652;28;20048;-64
2022/06/30 06:50:03;;;;;;;4.82;3.97;;;23.30;58.60;;;;;;5047490;28;20144;-68
2022/06/30 06:52:31;;;;;;;8.43;3.75;;;23.30;58.80;;;;;;5044654;28;20053;-64
2022/06/30 06:54:58;;;;;;;3.65;3.35;;;23.30;58.70;;;;;;5045390;28;20049;-65
2022/06/30 06:57:31;;;;;;;5.55;3.53;;;23.30;58.80;;;;;;5042877;28;20175;-62
2022/06/30 06:59:58;;;;;;;4.13;3.72;;;23.40;58.90;;;;;;5040684;28;20059;-63
2022/06/30 07:02:25;;;;;;;4.25;3.60;;;23.30;58.70;;;;;;5035213;28;20041;-63
2022/06/30 07:04:52;;;;;;;3.53;3.13;;;23.40;59.00;;;;;;5037489;28;20137;-62
2022/06/30 07:07:20;;;;;;;4.22;3.80;;;23.40;59.00;;;;;;5045977;28;20060;-62
2022/06/30 07:09:47;;;;;;;5.68;3.70;;;23.40;59.00;;;;;;5035767;28;20136;-62
2022/06/30 07:12:15;;;;;;;3.92;3.58;;;23.40;59.00;;;;;;5044884;28;20139;-62
2022/06/30 07:14:44;;;;;;;6.07;3.75;;;23.40;59.00;;;;;;5044748;28;20434;-62
2022/06/30 07:17:12;;;;;;;5.88;3.97;;;23.40;59.30;;;;;;5041192;28;20053;-63
2022/06/30 07:19:39;;;;;;;8.30;4.57;;;23.40;59.30;;;;;;5039916;28;20137;-64
2022/06/30 07:22:07;;;;;;;5.80;3.90;;;23.40;59.30;;;;;;5040549;28;20041;-63
2022/06/30 07:24:34;;;;;;;4.20;3.80;;;23.40;59.50;;;;;;5024197;28;20057;-63
2022/06/30 07:27:02;;;;;;;9.93;4.25;;;23.40;59.20;;;;;;5043533;28;20421;-65
2022/06/30 07:29:30;;;;;;;4.32;3.92;;;23.30;59.30;;;;;;5041629;28;20049;-63
2022/06/30 07:31:57;;;;;;;4.20;3.80;;;23.30;59.20;;;;;;5038813;28;20041;-64
2022/06/30 07:34:25;;;;;;;4.55;4.03;;;23.30;59.20;;;;;;5039775;28;20077;-64
2022/06/30 07:36:52;;;;;;;4.28;3.88;;;23.40;59.50;;;;;;5056814;28;20053;-63
2022/06/30 07:39:19;;;;;;;3.90;3.60;;;23.30;60.10;;;;;;5038296;28;20053;-64
2022/06/30 07:41:48;;;;;;;4.07;3.67;;;23.30;59.50;;;;;;5039966;28;20048;-63
2022/06/30 07:44:15;;;;;;;3.75;3.47;;;23.30;59.70;;;;;;5041853;28;20052;-65
2022/06/30 07:46:43;;;;;;;4.25;3.88;;;23.30;60.00;;;;;;5044161;28;20349;-65
2022/06/30 07:49:11;;;;;;;5.63;4.05;;;23.30;60.00;;;;;;5042275;28;20135;-62
2022/06/30 07:51:38;;;;;;;6.95;3.75;;;23.30;60.30;;;;;;5042950;28;20049;-68
2022/06/30 07:54:05;;;;;;;5.63;4.13;;;23.40;60.20;;;;;;5043501;28;20068;-68
2022/06/30 07:56:33;;;;;;;9.10;4.63;;;23.40;60.40;;;;;;5038268;28;20153;-63
2022/06/30 07:59:02;;;;;;;7.88;4.43;;;23.40;60.50;;;;;;5041496;28;20127;-64
2022/06/30 08:01:30;;;;;;;5.65;4.05;;;23.50;60.20;;;;;;5041909;28;20331;-68
2022/06/30 08:03:57;;;;;;;4.75;4.20;;;23.50;60.50;;;;;;5044555;28;20053;-67
2022/06/30 08:06:25;;;;;;;6.95;4.40;;;23.50;60.50;;;;;;5040279;28;20512;-66
2022/06/30 08:08:52;;;;;;;5.68;4.43;;;23.50;60.80;;;;;;5040686;28;20048;-67
2022/06/30 08:11:19;;;;;;;6.30;4.18;;;23.50;60.80;;;;;;5039989;28;20102;-66
2022/06/30 08:13:47;;;;;;;5.90;4.07;;;23.60;60.70;;;;;;5038892;28;20552;-66
2022/06/30 08:16:15;;;;;;;4.53;4.20;;;23.60;60.90;;;;;;5041413;28;20048;-65
2022/06/30 08:18:43;;;;;;;4.63;4.22;;;23.60;60.20;;;;;;5038633;28;20068;-65
2022/06/30 08:21:10;;;;;;;8.40;4.60;;;23.60;60.20;;;;;;5041352;28;20049;-63
2022/06/30 08:23:40;;;;;;;6.13;4.18;;;23.60;60.10;;;;;;5043219;28;20131;-66
2022/06/30 08:26:07;;;;;;;6.15;3.53;;;23.60;60.20;;;;;;5042142;28;20421;-67
2022/06/30 08:28:34;;;;;;;5.78;4.07;;;23.60;60.10;;;;;;5040734;28;20041;-67
2022/06/30 08:31:03;;;;;;;4.60;4.20;;;23.60;60.30;;;;;;5042524;28;20049;-65
2022/06/30 08:33:31;;;;;;;4.35;3.95;;;23.60;60.30;;;;;;5040383;28;20049;-66
2022/06/30 08:35:58;;;;;;;4.30;3.80;;;23.60;60.40;;;;;;5042023;28;20048;-67
2022/06/30 08:38:28;;;;;;;4.55;4.15;;;23.70;60.40;;;;;;5042209;28;20095;-65
2022/06/30 08:43:45;;;;;;;4.22;3.83;;;23.70;60.50;;;;;;5037411;28;20409;-65
2022/06/30 08:46:13;;;;;;;4.05;3.60;;;23.70;60.30;;;;;;5040294;28;20576;-65
2022/06/30 08:48:41;;;;;;;4.40;4.00;;;23.70;59.90;;;;;;5037661;28;20036;-66
2022/06/30 08:51:10;;;;;;;4.18;3.88;;;23.70;60.10;;;;;;5040711;28;20060;-66
2022/06/30 08:53:52;;;;;;;3.75;3.45;;;23.70;60.30;;;;;;5038661;28;20049;-67
2022/06/30 08:56:20;;;;;;;4.40;4.00;;;23.60;60.10;;;;;;5038817;28;20494;-65
2022/06/30 08:58:49;;;;;;;4.00;3.70;;;23.60;60.80;;;;;;5042397;28;20187;-66
2022/06/30 09:01:17;;;;;;;6.20;4.07;;;23.60;60.80;;;;;;5042907;28;20067;-65
2022/06/30 09:03:45;;;;;;;4.50;4.10;;;23.60;60.80;;;;;;5037544;28;20405;-66
2022/06/30 09:06:13;;;;;;;4.03;3.72;;;23.60;60.80;;;;;;5044087;28;20164;-66
2022/06/30 09:09:00;;;;;;;4.47;4.07;;;23.70;60.70;;;;;;5046618;28;20171;-66
2022/06/30 09:11:49;;;;;;;4.03;3.70;;;23.70;60.60;;;;;;5038847;28;20048;-66
2022/06/30 09:14:40;;;;;;;3.97;3.65;;;23.70;60.80;;;;;;5037296;28;20045;-66
2022/06/30 09:17:15;;;;;;;4.00;3.70;;;23.70;61.00;;;;;;5048808;28;20084;-67
2022/06/30 09:20:04;;;;;;;4.25;3.95;;;23.70;60.90;;;;;;5041882;28;20444;-64
2022/06/30 09:22:35;;;;;;;4.20;3.83;;;23.70;60.60;;;;;;5060558;28;20390;-65
2022/06/30 09:25:07;;;;;;;4.70;4.22;;;23.70;60.40;;;;;;5052821;28;20921;-65
2022/06/30 09:27:38;;;;;;;3.95;3.65;;;23.70;60.60;;;;;;5040964;28;20410;-66
2022/06/30 09:30:10;;;;;;;3.83;3.53;;;23.70;60.60;;;;;;5039043;28;20409;-66
2022/06/30 09:32:50;;;;;;;3.80;3.50;;;23.70;60.60;;;;;;5035318;28;20792;-65
2022/06/30 09:35:20;;;;;;;4.43;4.03;;;23.70;60.60;;;;;;5042318;28;21144;-65
2022/06/30 09:38:10;;;;;;;3.97;3.67;;;23.70;60.40;;;;;;5041408;28;20049;-65
2022/06/30 09:43:36;;;;;;;4.07;3.67;;;23.80;60.70;;;;;;5040770;28;20392;-66
2022/06/30 09:46:05;;;;;;;4.05;3.75;;;23.80;60.60;;;;;;5041185;28;20037;-66
2022/06/30 09:48:38;;;;;;;3.90;3.60;;;23.80;60.50;;;;;;5046271;28;20072;-65
2022/06/30 09:51:06;;;;;;;4.55;4.15;;;23.70;60.40;;;;;;5039958;28;20040;-66
2022/06/30 09:53:33;;;;;;;5.38;3.58;;;23.70;60.40;;;;;;5038963;28;20124;-65
2022/06/30 09:56:13;;;;;;;4.68;3.75;;;23.80;60.40;;;;;;5040819;28;20098;-65
2022/06/30 09:58:42;;;;;;;3.92;3.63;;;23.70;60.30;;;;;;5042729;28;20113;-65
2022/06/30 10:01:10;;;;;;;3.70;3.40;;;23.70;60.40;;;;;;5046335;28;20049;-66
2022/06/30 10:03:59;;;;;;;4.25;3.50;;;23.70;60.50;;;;;;5040704;28;20072;-66
2022/06/30 10:06:28;;;;;;;3.15;2.90;;;23.70;60.60;;;;;;5041301;28;20102;-65
2022/06/30 10:08:56;;;;;;;3.85;3.55;;;23.60;60.50;;;;;;5042257;28;20429;-66
2022/06/30 10:11:24;;;;;;;4.68;3.72;;;23.70;60.60;;;;;;5043878;28;20053;-66
2022/06/30 10:13:52;;;;;;;4.47;3.50;;;23.70;60.90;;;;;;5043493;28;20053;-65
2022/06/30 10:16:21;;;;;;;4.07;3.78;;;23.60;60.50;;;;;;5037174;28;20053;-65
2022/06/30 10:18:49;;;;;;;3.80;3.45;;;23.60;60.70;;;;;;5039795;28;20056;-65
2022/06/30 10:21:20;;;;;;;3.53;3.22;;;23.70;60.50;;;;;;5042294;28;20053;-66
2022/06/30 10:23:49;;;;;;;4.28;3.63;;;23.60;60.50;;;;;;5045332;28;20048;-65
2022/06/30 10:29:05;;;;;;;3.78;3.47;;;23.60;60.70;;;;;;5041589;28;20485;-65
2022/06/30 10:31:58;;;;;;;3.77;3.47;;;23.70;60.90;;;;;;5041507;28;20497;-65
2022/06/30 10:34:36;;;;;;;3.92;3.63;;;23.60;60.90;;;;;;5039471;28;20051;-65
2022/06/30 10:37:16;;;;;;;4.07;3.78;;;23.70;61.00;;;;;;5038011;28;20110;-65
2022/06/30 10:39:55;;;;;;;3.85;3.55;;;23.70;61.70;;;;;;5037362;28;20237;-65
2022/06/30 10:42:47;;;;;;;4.03;3.63;;;23.70;61.00;;;;;;5046139;28;20053;-65
2022/06/30 10:45:35;;;;;;;3.60;3.30;;;23.70;61.20;;;;;;5041266;28;20052;-65
2022/06/30 10:48:07;;;;;;;3.15;2.95;;;23.70;61.30;;;;;;5044319;28;20045;-65
2022/06/30 10:50:42;;;;;;;3.50;3.20;;;23.70;61.10;;;;;;5042836;28;20065;-65
2022/06/30 10:53:16;;;;;;;3.75;3.45;;;23.70;61.10;;;;;;5041089;28;20059;-65
2022/06/30 10:55:54;;;;;;;3.97;3.67;;;23.80;61.30;;;;;;5045871;28;20285;-65
2022/06/30 10:58:22;;;;;;;3.35;3.10;;;23.80;61.40;;;;;;5057993;28;20045;-65
2022/06/30 11:01:00;;;;;;;5.53;3.03;;;23.70;61.30;;;;;;5032317;28;20057;-65
2022/06/30 11:03:56;;;;;;;3.88;3.58;;;23.70;61.50;;;;;;5046958;28;20083;-66
2022/06/30 11:06:26;;;;;;;3.55;3.25;;;23.80;61.70;;;;;;5042973;28;20045;-66
2022/06/30 11:09:00;;;;;;;3.88;3.58;;;23.80;61.80;;;;;;5039434;28;20045;-66
2022/06/30 11:11:47;;;;;;;4.72;3.63;;;23.80;61.70;;;;;;5041549;28;20125;-67
2022/06/30 11:14:24;;;;;;;3.55;3.33;;;23.90;61.40;;;;;;5044545;28;20072;-66
2022/06/30 11:16:53;;;;;;;3.47;3.17;;;23.90;61.30;;;;;;5043424;28;20045;-66
2022/06/30 11:19:24;;;;;;;3.95;3.55;;;23.90;61.50;;;;;;5044558;28;20077;-68
2022/06/30 11:21:54;;;;;;;3.83;3.53;;;23.90;62.00;;;;;;5041795;28;20098;-67
2022/06/30 11:24:23;;;;;;;3.13;2.92;;;23.90;61.40;;;;;;5037018;28;20056;-69
2022/06/30 11:29:39;;;;;;;3.55;3.03;;;23.90;61.50;;;;;;5046454;28;20276;-66
2022/06/30 11:32:06;;;;;;;3.40;3.10;;;23.90;61.30;;;;;;5041874;28;20044;-66
2022/06/30 11:34:37;;;;;;;3.95;3.63;;;24.00;61.30;;;;;;5039891;28;20056;-66
2022/06/30 11:37:04;;;;;;;3.58;3.28;;;24.00;61.20;;;;;;5040382;28;20045;-67
2022/06/30 11:39:32;;;;;;;3.00;2.80;;;24.00;61.20;;;;;;5043251;28;20045;-65
2022/06/30 11:42:02;;;;;;;3.30;3.00;;;24.00;61.20;;;;;;5041700;28;20497;-65
2022/06/30 11:44:38;;;;;;;4.00;3.70;;;24.00;61.50;;;;;;5037804;28;20045;-67
2022/06/30 11:47:10;;;;;;;4.00;3.70;;;24.00;61.40;;;;;;5044971;28;20074;-65
2022/06/30 11:49:44;;;;;;;3.63;3.38;;;24.00;61.30;;;;;;5040040;28;20456;-66
2022/06/30 11:52:22;;;;;;;3.03;2.83;;;24.10;61.40;;;;;;5041949;28;20556;-64
2022/06/30 11:54:58;;;;;;;2.90;2.70;;;24.10;61.40;;;;;;5038493;28;20041;-65
2022/06/30 11:57:28;;;;;;;4.72;2.95;;;24.10;61.20;;;;;;5036843;28;20040;-67
2022/06/30 12:00:05;;;;;;;3.63;3.33;;;24.10;61.30;;;;;;5038709;28;20076;-66
2022/06/30 12:02:34;;;;;;;3.17;2.92;;;24.10;61.40;;;;;;5040417;28;20041;-65
2022/06/30 12:05:04;;;;;;;3.08;2.80;;;24.10;61.30;;;;;;5037756;28;20049;-64
2022/06/30 12:07:33;;;;;;;3.00;2.70;;;24.10;61.30;;;;;;5041765;28;20052;-65
2022/06/30 12:10:04;;;;;;;3.30;3.10;;;24.10;61.20;;;;;;5038156;28;20049;-66
2022/06/30 12:12:32;;;;;;;3.42;3.13;;;24.10;61.20;;;;;;5036814;28;20053;-66
2022/06/30 12:15:08;;;;;;;3.53;2.90;;;24.10;61.20;;;;;;5044367;28;20107;-65
2022/06/30 12:17:38;;;;;;;3.50;3.20;;;24.10;61.20;;;;;;5044509;28;20114;-65
2022/06/30 12:20:09;;;;;;;3.47;3.17;;;24.10;61.20;;;;;;5043897;28;20466;-65
2022/06/30 12:22:45;;;;;;;4.57;3.25;;;24.10;61.20;;;;;;5047198;28;20449;-65
2022/06/30 12:25:14;;;;;;;3.47;3.20;;;24.20;61.40;;;;;;5040989;28;20203;-65
2022/06/30 12:27:49;;;;;;;4.28;3.65;;;24.10;61.60;;;;;;5040557;28;20118;-65
2022/06/30 12:30:33;;;;;;;3.40;3.10;;;24.20;61.60;;;;;;5039394;28;20460;-65
2022/06/30 12:33:03;;;;;;;3.50;3.20;;;24.20;61.50;;;;;;5043330;28;20056;-66
2022/06/30 12:35:33;;;;;;;3.17;2.97;;;24.20;61.20;;;;;;5044935;28;20143;-66
2022/06/30 12:38:19;;;;;;;3.17;2.90;;;24.10;61.20;;;;;;5047277;28;20106;-66
2022/06/30 12:40:48;;;;;;;3.75;2.97;;;24.10;61.00;;;;;;5058229;28;20048;-66
2022/06/30 12:43:19;;;;;;;4.15;3.25;;;24.10;61.00;;;;;;5046770;28;20072;-67
2022/06/30 12:45:55;;;;;;;3.30;3.10;;;24.10;61.10;;;;;;5041971;28;20064;-66
2022/06/30 12:48:50;;;;;;;3.00;2.75;;;24.10;61.30;;;;;;5041997;28;20053;-65
2022/06/30 12:51:40;;;;;;;3.53;3.22;;;24.10;61.10;;;;;;5045457;28;20049;-65
2022/06/30 12:54:13;;;;;;;3.38;3.03;;;24.10;61.00;;;;;;5069921;28;20060;-64
2022/06/30 12:56:41;;;;;;;4.55;3.03;;;24.20;61.00;;;;;;5044084;28;20124;-64
2022/06/30 12:59:11;;;;;;;2.97;2.63;;;24.20;60.90;;;;;;5039661;28;20111;-65
2022/06/30 13:01:42;;;;;;;3.08;2.78;;;24.30;60.80;;;;;;5042271;28;20048;-64
2022/06/30 13:04:17;;;;;;;8.75;3.58;;;24.20;60.60;;;;;;5044704;28;20041;-63
2022/06/30 13:06:47;;;;;;;2.90;2.70;;;24.20;60.60;;;;;;5045268;28;20041;-64
2022/06/30 13:09:17;;;;;;;4.18;3.08;;;24.30;60.80;;;;;;5045356;28;20055;-63
2022/06/30 13:11:49;;;;;;;3.53;3.22;;;24.30;60.80;;;;;;5046040;28;20102;-66
2022/06/30 13:14:19;;;;;;;4.57;2.65;;;24.30;60.80;;;;;;5072937;28;20053;-64
2022/06/30 13:16:48;;;;;;;2.60;2.40;;;24.30;60.50;;;;;;5041015;28;20053;-64
2022/06/30 13:19:17;;;;;;;3.22;3.00;;;24.30;60.60;;;;;;5042129;28;20037;-65
2022/06/30 13:21:47;;;;;;;3.00;2.80;;;24.30;60.50;;;;;;5045683;28;20163;-63
2022/06/30 13:24:16;;;;;;;3.00;2.65;;;24.30;60.50;;;;;;5040458;28;20091;-65
2022/06/30 13:26:44;;;;;;;3.00;2.78;;;24.30;60.40;;;;;;5043976;28;20060;-63